Time;durP1;ratioP1;P1;durP2;ratioP2;P2;SDS_P1;SDS_P2;PMS_P1;PMS_P2;Temp;Humidity;BMP_temperature;BMP_pressure;BME280_temperature;BME280_humidity;BME280_pressure;Samples;Min_cycle;Max_cycle;Signal;HPM_P1;HPM_P2
2023/06/03 00:00:18;;;;;;;11.25;4.43;;;;;;;17.58;58.29;97905.34;4455961;32;20103;-82
2023/06/03 00:02:47;;;;;;;9.07;3.30;;;;;;;17.19;58.78;97915.09;4455996;32;20097;-82
2023/06/03 00:05:17;;;;;;;11.63;4.25;;;;;;;17.19;59.48;97920.31;4455738;32;20104;-82
2023/06/03 00:07:45;;;;;;;11.25;4.72;;;;;;;17.28;58.16;97917.03;4455846;32;20124;-82
2023/06/03 00:10:12;;;;;;;13.85;3.90;;;;;;;17.64;56.92;97913.53;4454734;32;20503;-82
2023/06/03 00:12:39;;;;;;;11.43;4.32;;;;;;;17.64;56.61;97923.13;4455624;32;20141;-82
2023/06/03 00:15:07;;;;;;;11.82;4.32;;;;;;;18.04;55.49;97931.50;4455654;32;20109;-82
2023/06/03 00:17:34;;;;;;;10.82;4.50;;;;;;;18.10;55.28;97945.88;4455689;32;20112;-82
2023/06/03 00:20:09;;;;;;;10.32;4.43;;;;;;;18.72;53.63;97951.59;4454860;32;20474;-83
2023/06/03 00:22:37;;;;;;;12.10;4.57;;;;;;;19.24;52.15;97959.72;4455675;32;20474;-82
2023/06/03 00:25:07;;;;;;;15.38;4.15;;;;;;;19.10;52.91;97960.00;4455657;32;20117;-82
2023/06/03 00:27:36;;;;;;;9.15;3.53;;;;;;;18.70;53.18;97963.09;4455356;32;20107;-82
2023/06/03 00:30:05;;;;;;;11.20;4.25;;;;;;;18.16;55.13;97972.34;4455369;32;20108;-82
2023/06/03 00:32:32;;;;;;;9.90;3.83;;;;;;;18.37;54.45;97976.91;4455061;32;20361;-82
2023/06/03 00:34:59;;;;;;;9.23;4.22;;;;;;;18.06;55.14;97973.97;4455409;32;20492;-82
2023/06/03 00:37:26;;;;;;;10.77;3.83;;;;;;;17.27;57.59;97977.97;4455466;32;20145;-82
2023/06/03 00:39:53;;;;;;;10.38;4.28;;;;;;;17.82;56.86;97975.78;4454801;32;20151;-82
2023/06/03 00:42:20;;;;;;;9.77;3.78;;;;;;;17.45;58.54;97975.00;4455490;32;20096;-82
2023/06/03 00:45:06;;;;;;;10.88;4.18;;;;;;;17.22;59.31;97979.22;4455177;32;20137;-82
2023/06/03 00:47:33;;;;;;;11.27;3.85;;;;;;;17.23;59.80;97986.97;4454965;32;20111;-83
2023/06/03 00:50:00;;;;;;;10.05;3.92;;;;;;;16.68;61.60;97990.75;4453935;32;20085;-82
2023/06/03 00:52:27;;;;;;;13.00;4.05;;;;;;;17.15;59.76;97985.81;4454327;32;20144;-82
2023/06/03 00:54:54;;;;;;;13.32;4.30;;;;;;;16.67;61.13;97986.47;4453821;32;20248;-82
2023/06/03 00:57:24;;;;;;;12.93;4.65;;;;;;;16.52;61.12;97981.47;4455308;32;20104;-82
2023/06/03 00:59:51;;;;;;;9.13;4.12;;;;;;;16.84;60.08;97985.34;4455108;32;20103;-82
2023/06/03 01:02:19;;;;;;;10.70;3.70;;;;;;;17.03;58.77;97984.91;4454934;32;20093;-82
2023/06/03 01:04:47;;;;;;;12.48;4.37;;;;;;;16.76;59.63;97990.25;4455088;32;20432;-82
2023/06/03 01:07:20;;;;;;;12.55;4.53;;;;;;;16.97;59.10;97993.16;4455053;32;20444;-82
2023/06/03 01:10:08;;;;;;;12.40;4.35;;;;;;;17.12;57.94;98001.66;4454857;32;20116;-82
2023/06/03 01:12:38;;;;;;;12.85;4.12;;;;;;;17.62;55.92;98005.91;4454931;32;20163;-82
2023/06/03 01:15:25;;;;;;;11.23;3.67;;;;;;;17.16;57.79;98005.75;4449891;32;146540;-82
2023/06/03 01:17:57;;;;;;;11.45;4.25;;;;;;;16.74;58.79;98003.37;4453597;32;20158;-82
2023/06/03 01:20:26;;;;;;;8.88;3.80;;;;;;;16.95;57.98;98011.50;4454996;32;20103;-82
2023/06/03 01:23:11;;;;;;;10.00;4.20;;;;;;;18.03;55.03;98023.81;4455564;32;20100;-82
2023/06/03 01:25:41;;;;;;;11.65;4.37;;;;;;;18.01;55.46;98027.50;4456084;32;20159;-82
2023/06/03 01:28:08;;;;;;;10.93;4.07;;;;;;;18.23;53.81;98016.28;4457215;32;20097;-82
2023/06/03 01:30:35;;;;;;;11.00;4.22;;;;;;;18.43;53.36;98019.09;4456486;32;20105;-82
2023/06/03 01:33:03;;;;;;;12.05;4.00;;;;;;;17.80;54.20;98025.50;4455837;32;20156;-82
2023/06/03 01:35:31;;;;;;;10.40;4.18;;;;;;;17.30;55.31;98024.69;4456647;32;20463;-82
2023/06/03 01:37:58;;;;;;;9.85;3.60;;;;;;;16.73;57.03;98026.94;4456975;32;20101;-82
2023/06/03 01:40:25;;;;;;;9.98;3.60;;;;;;;17.01;56.61;98021.53;4457093;32;20105;-82
2023/06/03 01:42:52;;;;;;;10.98;4.28;;;;;;;16.80;56.86;98011.72;4455614;32;20098;-82
2023/06/03 01:45:19;;;;;;;10.15;3.97;;;;;;;16.48;58.00;98017.28;4456957;32;20119;-82
2023/06/03 01:47:46;;;;;;;10.40;3.62;;;;;;;16.74;57.32;98023.41;4456996;32;20145;-82
2023/06/03 01:50:16;;;;;;;13.57;4.40;;;;;;;16.69;57.49;98010.69;4456330;32;20088;-82
2023/06/03 01:52:44;;;;;;;9.95;4.57;;;;;;;16.53;58.67;98019.59;4456920;32;20081;-82
2023/06/03 01:55:12;;;;;;;10.18;3.65;;;;;;;16.27;58.99;98013.50;4456836;32;20089;-82
2023/06/03 01:57:39;;;;;;;11.98;3.92;;;;;;;15.99;59.66;98014.50;4456455;32;20101;-82
2023/06/03 02:00:07;;;;;;;13.18;4.25;;;;;;;16.50;58.62;98010.25;4456722;32;20097;-82
2023/06/03 02:02:33;;;;;;;14.32;3.97;;;;;;;16.36;58.45;98018.13;4455700;32;20146;-82
2023/06/03 02:05:01;;;;;;;13.50;3.90;;;;;;;17.07;56.94;98025.47;4456335;32;20092;-82
2023/06/03 02:07:30;;;;;;;11.85;4.43;;;;;;;17.11;56.75;98031.28;4455637;32;20167;-82
2023/06/03 02:10:01;;;;;;;14.38;3.87;;;;;;;17.11;56.33;98024.28;4456854;32;20207;-82
2023/06/03 02:12:28;;;;;;;11.45;3.92;;;;;;;16.04;59.51;98026.28;4455407;32;20196;-82
2023/06/03 02:14:56;;;;;;;12.52;5.07;;;;;;;16.37;59.39;98031.03;4456897;32;20518;-82
2023/06/03 02:17:24;;;;;;;11.70;4.40;;;;;;;16.13;60.18;98045.66;4456936;32;20148;-82
2023/06/03 02:19:51;;;;;;;11.95;4.45;;;;;;;16.92;57.49;98042.16;4455917;32;20093;-82
2023/06/03 02:22:18;;;;;;;12.27;4.70;;;;;;;17.48;55.60;98053.84;4456800;32;20107;-82
2023/06/03 02:24:48;;;;;;;14.13;6.00;;;;;;;17.21;56.21;98061.00;4456550;32;20507;-82
2023/06/03 02:27:24;;;;;;;13.07;3.80;;;;;;;16.65;57.87;98066.50;4456759;32;20151;-82
2023/06/03 02:29:52;;;;;;;10.30;4.22;;;;;;;15.55;61.74;98064.97;4456800;32;20145;-82
2023/06/03 02:32:19;;;;;;;13.90;4.50;;;;;;;15.66;61.78;98059.13;4455632;32;20077;-82
2023/06/03 02:34:50;;;;;;;12.13;4.22;;;;;;;16.03;60.26;98070.63;4456823;32;20112;-82
2023/06/03 02:37:17;;;;;;;11.60;4.82;;;;;;;16.12;60.79;98086.47;4457080;32;20136;-82
2023/06/03 02:39:44;;;;;;;12.00;4.20;;;;;;;16.28;60.57;98085.50;4456138;32;20092;-82
2023/06/03 02:42:12;;;;;;;13.52;4.78;;;;;;;16.95;58.54;98084.47;4457025;32;20077;-82
2023/06/03 02:44:38;;;;;;;11.63;3.97;;;;;;;16.87;58.32;98078.13;4456969;32;20131;-82
2023/06/03 02:47:06;;;;;;;16.45;5.10;;;;;;;17.61;55.39;98080.72;4456574;32;20149;-82
2023/06/03 02:49:33;;;;;;;14.20;4.70;;;;;;;16.67;57.77;98075.03;4456832;32;20088;-82
2023/06/03 02:52:00;;;;;;;12.20;4.22;;;;;;;16.55;58.34;98080.25;4456969;32;20107;-82
2023/06/03 02:54:27;;;;;;;13.45;4.30;;;;;;;16.82;57.15;98080.22;4456564;32;20150;-82
2023/06/03 02:56:55;;;;;;;11.73;4.60;;;;;;;17.15;56.53;98074.47;4456818;32;20439;-82
2023/06/03 02:59:22;;;;;;;11.77;4.70;;;;;;;17.58;54.79;98080.13;4456638;32;20097;-82
2023/06/03 03:01:49;;;;;;;13.80;4.60;;;;;;;17.68;54.69;98086.38;4456554;32;20116;-82
2023/06/03 03:04:37;;;;;;;11.15;4.20;;;;;;;16.97;57.31;98084.38;4456836;32;20089;-82
2023/06/03 03:07:08;;;;;;;10.45;4.50;;;;;;;16.78;57.61;98090.81;4456366;32;20387;-82
2023/06/03 03:09:38;;;;;;;12.32;4.30;;;;;;;16.35;59.02;98086.75;4456884;32;20145;-82
2023/06/03 03:12:05;;;;;;;15.25;4.85;;;;;;;15.82;60.81;98091.03;4456503;32;20089;-82
2023/06/03 03:14:32;;;;;;;12.25;4.62;;;;;;;16.40;59.73;98098.56;4456222;32;20136;-82
2023/06/03 03:16:59;;;;;;;10.38;4.43;;;;;;;16.37;58.88;98100.50;4456831;32;20098;-82
2023/06/03 03:19:26;;;;;;;10.10;4.07;;;;;;;16.01;59.60;98101.94;4456408;32;20081;-82
2023/06/03 03:21:53;;;;;;;12.73;4.75;;;;;;;15.39;61.88;98100.66;4456050;32;20428;-82
2023/06/03 03:24:22;;;;;;;13.07;4.57;;;;;;;15.47;61.76;98095.81;4456527;32;20160;-82
2023/06/03 03:26:49;;;;;;;10.13;3.95;;;;;;;15.53;61.98;98098.88;4456435;32;20089;-82
2023/06/03 03:29:17;;;;;;;11.25;4.37;;;;;;;15.19;63.68;98101.84;4455862;32;20097;-82
2023/06/03 03:31:44;;;;;;;11.00;4.22;;;;;;;15.62;61.38;98106.13;4455308;32;20085;-82
2023/06/03 03:34:12;;;;;;;9.10;4.28;;;;;;;15.57;61.71;98099.53;4456332;32;20155;-82
2023/06/03 03:36:39;;;;;;;12.68;4.30;;;;;;;16.45;58.81;98104.28;4456035;32;20146;-82
2023/06/03 03:39:06;;;;;;;12.88;4.62;;;;;;;16.49;58.03;98110.13;4456502;32;20372;-82
2023/06/03 03:41:33;;;;;;;16.33;4.40;;;;;;;16.74;57.82;98106.78;4455981;32;20424;-82
2023/06/03 03:44:00;;;;;;;12.10;4.60;;;;;;;16.17;59.68;98113.06;4455911;32;20495;-82
2023/06/03 03:46:27;;;;;;;19.08;4.60;;;;;;;16.02;59.18;98114.03;4456642;32;20112;-82
2023/06/03 03:48:54;;;;;;;9.65;3.85;;;;;;;16.17;59.30;98120.88;4455853;32;20161;-82
2023/06/03 03:51:21;;;;;;;12.88;4.47;;;;;;;15.72;60.37;98110.75;4456079;32;20107;-82
2023/06/03 03:53:49;;;;;;;11.48;4.35;;;;;;;15.98;60.31;98117.78;4456138;32;20489;-82
2023/06/03 03:56:18;;;;;;;12.77;5.07;;;;;;;16.55;58.43;98121.91;4455837;32;20092;-82
2023/06/03 03:58:47;;;;;;;11.43;4.62;;;;;;;16.93;57.04;98128.06;4456094;32;20471;-82
2023/06/03 04:01:16;;;;;;;11.15;4.50;;;;;;;17.27;56.08;98125.78;4454847;32;20624;-82
2023/06/03 04:03:48;;;;;;;11.65;5.10;;;;;;;17.50;55.78;98116.34;4455539;32;20097;-82
2023/06/03 04:06:24;;;;;;;12.70;5.18;;;;;;;17.54;55.85;98120.41;4455992;32;20096;-82
2023/06/03 04:08:52;;;;;;;14.93;4.65;;;;;;;17.64;55.19;98124.03;4455805;32;20156;-82
2023/06/03 04:11:26;;;;;;;11.25;4.68;;;;;;;17.72;54.41;98124.38;4455253;32;20111;-83
2023/06/03 04:13:54;;;;;;;14.27;4.55;;;;;;;17.99;54.12;98120.75;4455887;32;20089;-83
2023/06/03 04:16:34;;;;;;;11.45;3.90;;;;;;;16.92;57.20;98122.97;4455845;32;20140;-82
2023/06/03 04:19:06;;;;;;;11.38;4.43;;;;;;;17.30;56.09;98117.72;4455266;32;20148;-82
2023/06/03 04:21:37;;;;;;;10.30;4.15;;;;;;;17.83;54.10;98134.06;4455493;32;20093;-82
2023/06/03 04:24:05;;;;;;;12.73;4.35;;;;;;;18.30;52.05;98133.28;4455314;32;20115;-82
2023/06/03 04:26:34;;;;;;;10.15;4.30;;;;;;;18.37;52.99;98141.47;4455520;32;20093;-83
2023/06/03 04:29:01;;;;;;;10.57;4.32;;;;;;;20.55;47.59;98145.56;4455367;32;20755;-82
2023/06/03 04:31:28;;;;;;;12.57;4.30;;;;;;;22.19;43.56;98148.22;4454942;32;20085;-83
2023/06/03 04:33:55;;;;;;;10.52;4.32;;;;;;;22.38;42.92;98160.56;4455356;32;20097;-83
2023/06/03 04:36:22;;;;;;;12.25;4.87;;;;;;;23.11;42.78;98166.25;4455416;32;20162;-83
2023/06/03 04:38:51;;;;;;;9.18;4.28;;;;;;;24.12;40.31;98154.94;4455004;32;20467;-83
2023/06/03 04:41:18;;;;;;;10.98;4.50;;;;;;;24.82;39.06;98166.53;4455226;32;20450;-83
2023/06/03 04:43:45;;;;;;;9.98;4.03;;;;;;;26.10;36.39;98168.47;4455230;32;20097;-83
2023/06/03 04:46:14;;;;;;;10.30;4.30;;;;;;;26.79;34.64;98170.78;4454938;32;20108;-83
2023/06/03 04:48:45;;;;;;;10.68;4.20;;;;;;;25.52;36.17;98172.66;4455127;32;20175;-83
2023/06/03 04:51:13;;;;;;;10.45;4.30;;;;;;;26.64;34.67;98180.37;4455018;32;20080;-83
2023/06/03 04:53:40;;;;;;;11.52;4.55;;;;;;;27.88;32.04;98180.09;4454633;32;20090;-84
2023/06/03 04:56:08;;;;;;;10.90;4.45;;;;;;;28.15;31.26;98184.12;4457203;32;20101;-83
2023/06/03 04:58:36;;;;;;;13.62;3.87;;;;;;;28.32;31.18;98176.94;4457199;32;20107;-83
2023/06/03 05:01:04;;;;;;;12.65;4.78;;;;;;;27.63;32.06;98177.47;4456833;32;20069;-83
2023/06/03 05:03:33;;;;;;;10.10;3.95;;;;;;;26.54;33.34;98174.41;4457242;32;20089;-83
2023/06/03 05:06:01;;;;;;;13.55;4.53;;;;;;;26.79;33.18;98176.06;4456883;32;20089;-84
2023/06/03 05:08:28;;;;;;;12.25;4.25;;;;;;;27.38;32.71;98179.37;4457162;32;20111;-84
2023/06/03 05:10:55;;;;;;;10.35;4.05;;;;;;;26.66;34.26;98181.03;4457017;32;20085;-84
2023/06/03 05:13:22;;;;;;;11.30;3.95;;;;;;;26.87;33.15;98179.72;4456909;32;20380;-84
2023/06/03 05:15:49;;;;;;;7.70;3.60;;;;;;;26.79;33.54;98181.34;4457082;32;20105;-83
2023/06/03 05:18:16;;;;;;;10.10;4.15;;;;;;;26.42;34.13;98179.19;4456891;32;20495;-83
2023/06/03 05:20:43;;;;;;;11.43;4.10;;;;;;;27.35;32.67;98186.84;4456527;32;20148;-83
2023/06/03 05:23:10;;;;;;;10.70;4.10;;;;;;;26.93;32.97;98187.00;4457117;32;20161;-83
2023/06/03 05:25:37;;;;;;;9.00;3.62;;;;;;;26.16;33.94;98189.84;4456973;32;20116;-83
2023/06/03 05:28:05;;;;;;;10.15;3.90;;;;;;;24.74;36.61;98187.56;4456662;32;20426;-83
2023/06/03 05:30:32;;;;;;;10.93;4.15;;;;;;;24.76;37.11;98182.94;4456922;32;20072;-83
2023/06/03 05:32:59;;;;;;;10.32;4.20;;;;;;;22.73;40.82;98181.06;4456998;32;20105;-83
2023/06/03 05:35:26;;;;;;;9.23;3.70;;;;;;;24.02;39.25;98170.78;4456795;32;20101;-83
2023/06/03 05:37:53;;;;;;;12.57;4.18;;;;;;;25.36;36.73;98183.94;4456948;32;20093;-83
2023/06/03 05:40:20;;;;;;;10.80;4.47;;;;;;;25.84;35.42;98177.31;4456859;32;20576;-83
2023/06/03 05:42:47;;;;;;;9.23;3.72;;;;;;;26.06;35.16;98185.66;4456467;32;20093;-83
2023/06/03 05:45:15;;;;;;;9.63;3.95;;;;;;;24.81;36.04;98200.00;4456949;32;20133;-83
2023/06/03 05:47:42;;;;;;;10.70;3.70;;;;;;;23.97;38.06;98199.41;4456845;32;20093;-83
2023/06/03 05:50:09;;;;;;;10.00;4.50;;;;;;;23.00;40.33;98196.19;4456344;32;20100;-83
2023/06/03 05:52:36;;;;;;;9.50;4.15;;;;;;;22.89;40.89;98196.34;4456725;32;20092;-83
2023/06/03 05:55:03;;;;;;;11.50;4.60;;;;;;;23.12;40.63;98192.44;4456642;32;20196;-83
2023/06/03 05:57:30;;;;;;;8.48;3.80;;;;;;;23.48;40.39;98192.63;4456764;32;20148;-83
2023/06/03 05:59:57;;;;;;;9.40;4.25;;;;;;;22.93;41.78;98195.91;4456780;32;20080;-83
2023/06/03 06:02:24;;;;;;;9.48;3.97;;;;;;;22.75;42.17;98202.78;4456562;32;20097;-83
2023/06/03 06:04:51;;;;;;;10.40;4.37;;;;;;;23.37;41.33;98206.78;4456673;32;20109;-83
2023/06/03 06:07:18;;;;;;;11.32;4.30;;;;;;;22.91;41.87;98203.13;4456660;32;20081;-83
2023/06/03 06:09:45;;;;;;;11.20;4.60;;;;;;;22.69;41.63;98212.06;4456207;32;20136;-83
2023/06/03 06:12:12;;;;;;;11.93;4.05;;;;;;;22.68;41.60;98212.22;4456668;32;20119;-83
2023/06/03 06:14:39;;;;;;;13.62;4.60;;;;;;;22.07;42.78;98201.87;4456601;32;20145;-82
2023/06/03 06:17:10;;;;;;;9.35;4.12;;;;;;;21.74;44.08;98209.03;4456334;32;20085;-83
2023/06/03 06:19:37;;;;;;;13.38;4.07;;;;;;;22.85;41.90;98208.91;4456320;32;20080;-83
2023/06/03 06:22:04;;;;;;;12.65;4.40;;;;;;;24.17;39.57;98210.69;4456610;32;20169;-83
2023/06/03 06:24:32;;;;;;;10.20;4.32;;;;;;;24.48;38.87;98211.22;4456405;32;20108;-83
2023/06/03 06:27:02;;;;;;;9.85;4.12;;;;;;;23.76;39.78;98209.34;4455543;32;20097;-83
2023/06/03 06:29:29;;;;;;;11.45;4.35;;;;;;;23.56;40.53;98217.28;4456535;32;20424;-83
2023/06/03 06:31:56;;;;;;;13.10;4.07;;;;;;;24.15;39.01;98224.03;4456212;32;20145;-83
2023/06/03 06:34:23;;;;;;;13.30;4.37;;;;;;;24.13;39.48;98217.22;4456519;32;20372;-83
2023/06/03 06:36:52;;;;;;;10.25;4.45;;;;;;;24.89;38.03;98227.47;4456534;32;20491;-83
2023/06/03 06:39:43;;;;;;;10.48;4.65;;;;;;;24.48;38.39;98227.06;4456053;32;20144;-83
2023/06/03 06:42:13;;;;;;;9.70;3.70;;;;;;;24.79;37.75;98220.44;4456600;32;20710;-83
2023/06/03 06:44:48;;;;;;;13.57;4.15;;;;;;;25.56;36.72;98224.19;4456228;32;20097;-83
2023/06/03 06:47:21;;;;;;;11.63;4.30;;;;;;;25.37;37.45;98229.69;4456444;32;20093;-83
2023/06/03 06:49:52;;;;;;;11.82;4.32;;;;;;;24.64;38.14;98229.84;4456397;32;20107;-83
2023/06/03 06:52:22;;;;;;;12.43;4.30;;;;;;;23.98;40.13;98240.59;4456083;32;20451;-83
2023/06/03 06:54:49;;;;;;;9.27;4.30;;;;;;;24.15;39.51;98234.56;4456375;32;20093;-83
2023/06/03 06:57:28;;;;;;;9.70;4.45;;;;;;;23.73;40.78;98238.63;4456285;32;20160;-83
2023/06/03 06:59:55;;;;;;;11.12;4.60;;;;;;;23.62;40.51;98237.81;4455824;32;20092;-82
2023/06/03 07:02:22;;;;;;;11.93;4.35;;;;;;;23.78;40.48;98239.00;4456435;32;20115;-82
2023/06/03 07:04:51;;;;;;;11.18;4.47;;;;;;;23.67;40.73;98245.28;4456409;32;20157;-83
2023/06/03 07:07:18;;;;;;;10.90;4.03;;;;;;;23.64;41.21;98248.19;4455999;32;20577;-83
2023/06/03 07:09:45;;;;;;;10.40;4.10;;;;;;;23.80;41.50;98245.78;4456208;32;20117;-83
2023/06/03 07:12:12;;;;;;;10.93;4.20;;;;;;;24.23;40.03;98247.00;4456091;32;20108;-83
2023/06/03 07:14:39;;;;;;;11.63;4.45;;;;;;;24.40;40.01;98242.78;4456343;32;20097;-83
2023/06/03 07:17:07;;;;;;;11.50;4.68;;;;;;;24.77;38.71;98247.94;4455558;32;20156;-83
2023/06/03 07:19:37;;;;;;;11.82;4.40;;;;;;;24.51;38.57;98247.84;4455584;32;20180;-83
2023/06/03 07:22:07;;;;;;;10.10;4.20;;;;;;;26.09;36.53;98249.63;4456116;32;20113;-83
2023/06/03 07:24:35;;;;;;;9.45;3.67;;;;;;;26.70;35.48;98251.19;4456226;32;20111;-83
2023/06/03 07:27:06;;;;;;;9.95;3.78;;;;;;;27.22;33.38;98250.06;4455871;32;20085;-84
2023/06/03 07:29:37;;;;;;;10.80;4.25;;;;;;;27.09;34.45;98253.22;4454961;32;20076;-83
2023/06/03 07:32:07;;;;;;;9.85;3.92;;;;;;;26.75;34.08;98254.16;4456091;32;20157;-83
2023/06/03 07:34:36;;;;;;;10.23;3.85;;;;;;;26.06;35.84;98254.41;4455828;32;20436;-83
2023/06/03 07:37:11;;;;;;;9.00;3.60;;;;;;;26.86;33.67;98262.78;4455014;32;20107;-83
2023/06/03 07:39:38;;;;;;;9.27;3.90;;;;;;;27.07;32.22;98265.81;4454882;32;20477;-83
2023/06/03 07:42:13;;;;;;;11.90;4.20;;;;;;;26.40;34.16;98267.62;4455777;32;20108;-83
2023/06/03 07:44:43;;;;;;;8.60;3.80;;;;;;;27.21;33.69;98272.25;4456114;32;20165;-83
2023/06/03 07:47:14;;;;;;;9.23;3.60;;;;;;;26.34;35.17;98266.41;4454772;32;20102;-83
2023/06/03 07:49:48;;;;;;;9.68;4.10;;;;;;;25.80;36.65;98265.00;4455591;32;20089;-82
2023/06/03 07:52:17;;;;;;;12.23;3.97;;;;;;;26.29;35.83;98268.72;4455897;32;20107;-83
2023/06/03 07:54:44;;;;;;;9.82;4.32;;;;;;;26.22;35.37;98268.50;4455572;32;20101;-83
2023/06/03 07:57:13;;;;;;;9.07;3.70;;;;;;;26.06;35.78;98267.62;4455942;32;20142;-83
2023/06/03 07:59:55;;;;;;;9.25;3.75;;;;;;;24.81;37.27;98273.06;4455765;32;20154;-83
2023/06/03 08:02:23;;;;;;;10.48;3.92;;;;;;;24.85;37.34;98277.06;4455518;32;20154;-83
2023/06/03 08:04:53;;;;;;;9.30;3.90;;;;;;;25.95;35.52;98268.72;4455938;32;20156;-83
2023/06/03 08:07:20;;;;;;;9.63;3.83;;;;;;;25.68;36.55;98267.88;4455819;32;20077;-83
2023/06/03 08:09:47;;;;;;;10.45;3.97;;;;;;;25.05;36.80;98275.97;4455253;32;20160;-83
2023/06/03 08:12:14;;;;;;;10.38;4.80;;;;;;;23.35;39.22;98275.38;4455580;32;20104;-83
2023/06/03 08:14:41;;;;;;;9.57;3.78;;;;;;;24.24;37.14;98280.28;4455667;32;20101;-83
2023/06/03 08:17:14;;;;;;;10.82;3.70;;;;;;;23.91;38.45;98279.84;4455366;32;20089;-83
2023/06/03 08:19:45;;;;;;;10.05;3.90;;;;;;;24.29;38.07;98271.97;4455347;32;20065;-83
2023/06/03 08:22:34;;;;;;;7.18;3.28;;;;;;;24.26;36.05;98274.91;4455680;32;20109;-83
2023/06/03 08:25:01;;;;;;;11.73;3.67;;;;;;;24.11;34.59;98267.44;4455494;32;20127;-83
2023/06/03 08:27:31;;;;;;;8.38;3.37;;;;;;;24.88;34.77;98284.66;4455435;32;20140;-83
2023/06/03 08:29:58;;;;;;;8.63;3.45;;;;;;;24.50;35.02;98281.31;4456924;32;20180;-83
2023/06/03 08:32:25;;;;;;;7.30;3.05;;;;;;;24.60;35.35;98283.06;4457394;32;20145;-83
2023/06/03 08:34:52;;;;;;;8.43;3.60;;;;;;;24.30;36.18;98278.87;4457435;32;20101;-83
2023/06/03 08:37:18;;;;;;;8.93;3.65;;;;;;;24.31;37.14;98280.56;4457175;32;20097;-82
2023/06/03 08:39:47;;;;;;;9.25;3.80;;;;;;;24.49;37.80;98273.53;4457148;32;20496;-82
2023/06/03 08:42:28;;;;;;;9.05;3.83;;;;;;;25.62;35.35;98276.41;4457431;32;20110;-82
2023/06/03 08:45:07;;;;;;;9.57;3.70;;;;;;;25.31;34.71;98283.97;4457121;32;20089;-83
2023/06/03 08:47:56;;;;;;;10.52;3.65;;;;;;;24.33;37.06;98282.09;4457227;32;20176;-83
2023/06/03 08:50:26;;;;;;;8.75;3.22;;;;;;;25.02;37.22;98291.28;4457150;32;20084;-83
2023/06/03 08:52:53;;;;;;;8.52;3.42;;;;;;;26.31;34.71;98295.00;4457040;32;20093;-83
2023/06/03 08:55:21;;;;;;;9.07;3.55;;;;;;;25.95;34.47;98285.41;4457217;32;20132;-82
2023/06/03 08:58:06;;;;;;;8.45;3.50;;;;;;;26.51;33.18;98289.34;4467688;32;20096;-85
2023/06/03 09:00:33;;;;;;;7.43;3.33;;;;;;;27.51;32.42;98294.63;4471652;32;20080;-84
2023/06/03 09:03:01;;;;;;;9.48;3.72;;;;;;;27.21;31.56;98293.47;4471726;32;20070;-84
2023/06/03 09:05:28;;;;;;;7.75;3.70;;;;;;;27.63;32.39;98301.22;4470348;32;20061;-84
2023/06/03 09:07:55;;;;;;;8.05;3.37;;;;;;;27.93;30.86;98303.22;4469220;32;20100;-84
2023/06/03 09:10:25;;;;;;;9.50;3.62;;;;;;;28.33;30.16;98295.34;4470144;32;20098;-84
2023/06/03 09:12:54;;;;;;;8.55;3.45;;;;;;;27.12;32.69;98291.81;4471258;32;20081;-83
2023/06/03 09:15:22;;;;;;;9.63;3.35;;;;;;;27.77;30.42;98294.47;4467264;32;20105;-82
2023/06/03 09:17:49;;;;;;;8.75;3.60;;;;;;;28.04;31.16;98298.53;4463563;32;20148;-84
2023/06/03 09:20:16;;;;;;;11.05;3.42;;;;;;;26.85;32.25;98293.72;4469924;32;20056;-83
2023/06/03 09:22:47;;;;;;;10.18;3.35;;;;;;;27.46;31.48;98289.00;4471275;32;20074;-84
2023/06/03 09:25:14;;;;;;;9.30;3.62;;;;;;;27.50;31.28;98292.97;4459930;32;20088;-83
2023/06/03 09:27:41;;;;;;;8.15;3.28;;;;;;;27.09;32.79;98290.31;4463129;32;20159;-84
2023/06/03 09:30:09;;;;;;;7.50;3.03;;;;;;;28.19;30.33;98288.91;4462518;32;20083;-84
2023/06/03 09:32:37;;;;;;;8.18;3.25;;;;;;;28.17;28.48;98294.34;4462969;32;20085;-84
2023/06/03 09:35:05;;;;;;;9.30;3.00;;;;;;;28.05;30.88;98302.84;4463390;32;20053;-84
2023/06/03 09:37:33;;;;;;;7.72;3.10;;;;;;;27.86;28.33;98298.75;4464529;32;20109;-84
2023/06/03 09:40:09;;;;;;;8.68;3.03;;;;;;;26.55;29.57;98283.72;4463901;32;20085;-84
2023/06/03 09:42:45;;;;;;;7.47;3.00;;;;;;;28.22;26.77;98294.69;4463685;32;20144;-84
2023/06/03 09:45:27;;;;;;;7.87;3.10;;;;;;;29.57;25.22;98293.44;4462747;32;20440;-84
2023/06/03 09:47:54;;;;;;;7.80;3.28;;;;;;;29.91;26.02;98287.59;4461938;32;20089;-84
2023/06/03 09:50:21;;;;;;;8.40;3.28;;;;;;;28.41;27.94;98288.19;4460590;32;20546;-84
2023/06/03 09:52:48;;;;;;;8.60;3.42;;;;;;;29.95;27.01;98296.03;4461011;32;20127;-84
2023/06/03 09:55:17;;;;;;;8.93;3.50;;;;;;;28.69;28.59;98285.03;4460735;32;20119;-84
2023/06/03 09:58:07;;;;;;;8.30;3.40;;;;;;;28.80;29.62;98290.78;4460760;32;20057;-84
2023/06/03 10:00:50;;;;;;;7.18;3.35;;;;;;;28.85;28.67;98290.25;4461241;32;20432;-84
2023/06/03 10:03:22;;;;;;;6.95;2.90;;;;;;;27.50;29.94;98292.97;4460389;32;20089;-84
2023/06/03 10:05:49;;;;;;;8.88;3.33;;;;;;;28.38;28.55;98292.97;4461050;32;20101;-84
2023/06/03 10:08:30;;;;;;;7.47;3.00;;;;;;;29.52;26.13;98294.97;4461511;32;20057;-84
2023/06/03 10:10:59;;;;;;;6.55;2.95;;;;;;;30.35;25.73;98296.63;4462454;32;20519;-84
2023/06/03 10:13:26;;;;;;;10.15;3.47;;;;;;;30.46;25.00;98290.81;4460650;32;20066;-84
2023/06/03 10:15:53;;;;;;;7.05;3.15;;;;;;;31.27;25.19;98289.72;4460049;32;20097;-84
2023/06/03 10:18:40;;;;;;;6.12;3.25;;;;;;;30.67;25.66;98282.91;4458009;32;20159;-84
2023/06/03 10:21:11;;;;;;;8.30;3.35;;;;;;;29.86;27.10;98279.34;4459551;32;20107;-84
2023/06/03 10:23:42;;;;;;;7.25;3.17;;;;;;;26.37;32.11;98278.50;4460443;32;20101;-84
2023/06/03 10:26:10;;;;;;;8.85;3.65;;;;;;;26.75;31.64;98285.91;4460094;32;20109;-84
2023/06/03 10:28:37;;;;;;;8.27;3.47;;;;;;;28.50;29.54;98292.44;4460739;32;20406;-83
2023/06/03 10:31:05;;;;;;;8.05;3.33;;;;;;;29.28;27.00;98291.47;4460166;32;20076;-84
2023/06/03 10:33:33;;;;;;;10.23;3.10;;;;;;;29.13;27.53;98290.59;4460783;32;20078;-84
2023/06/03 10:36:02;;;;;;;7.28;3.12;;;;;;;29.94;26.67;98284.56;4458003;32;20172;-83
2023/06/03 10:38:30;;;;;;;7.50;3.03;;;;;;;28.73;27.80;98286.34;4458972;32;20093;-85
2023/06/03 10:40:59;;;;;;;6.97;3.30;;;;;;;29.49;29.03;98282.03;4458275;32;20739;-84
2023/06/03 10:43:27;;;;;;;6.72;2.97;;;;;;;29.05;27.17;98278.22;4459875;32;20104;-84
2023/06/03 10:45:56;;;;;;;6.82;3.20;;;;;;;30.47;26.24;98277.31;4459980;32;20132;-84
2023/06/03 10:48:24;;;;;;;8.25;3.60;;;;;;;29.76;28.14;98280.59;4459617;32;20088;-84
2023/06/03 10:51:00;;;;;;;10.10;3.28;;;;;;;31.02;25.94;98275.09;4458468;32;20081;-84
2023/06/03 10:53:47;;;;;;;7.47;2.90;;;;;;;29.61;27.53;98278.75;4460141;32;20093;-84
2023/06/03 10:56:32;;;;;;;7.60;3.00;;;;;;;30.85;25.61;98277.19;4461029;32;20112;-84
2023/06/03 10:59:02;;;;;;;7.12;3.53;;;;;;;28.60;28.27;98272.81;4459246;32;20113;-83
2023/06/03 11:02:02;;;;;;;7.05;2.97;;;;;;;27.16;30.64;98279.91;4460253;32;20394;-84
2023/06/03 11:04:31;;;;;;;5.45;2.55;;;;;;;29.24;26.76;98276.06;4440937;32;20109;-84
2023/06/03 11:06:58;;;;;;;7.60;3.15;;;;;;;29.31;25.54;98283.16;4458744;32;20097;-84
2023/06/03 11:09:38;;;;;;;6.75;3.10;;;;;;;29.58;24.64;98276.47;4458757;32;20092;-84
2023/06/03 11:12:14;;;;;;;5.87;3.08;;;;;;;29.69;25.78;98277.87;4459947;32;20085;-83
2023/06/03 11:14:48;;;;;;;7.37;2.90;;;;;;;28.96;26.16;98279.25;4459670;32;20119;-83
2023/06/03 11:17:18;;;;;;;9.20;2.90;;;;;;;27.11;28.14;98277.72;4459297;32;20102;-83
2023/06/03 11:19:45;;;;;;;7.87;3.25;;;;;;;28.01;28.04;98277.69;4460321;32;20057;-84
2023/06/03 11:22:15;;;;;;;9.55;3.35;;;;;;;30.25;25.27;98278.28;4460996;32;20109;-84
2023/06/03 11:24:45;;;;;;;7.72;3.35;;;;;;;31.06;24.03;98273.72;4459912;32;20104;-84
2023/06/03 11:27:15;;;;;;;6.10;2.92;;;;;;;31.40;23.59;98277.53;4460740;32;20751;-83
2023/06/03 11:29:56;;;;;;;7.72;3.30;;;;;;;30.98;23.99;98279.97;4458757;32;20065;-84
2023/06/03 11:32:26;;;;;;;8.77;3.40;;;;;;;30.50;24.71;98268.13;4459014;32;20451;-84
2023/06/03 11:35:02;;;;;;;7.28;2.90;;;;;;;30.98;23.90;98271.97;4459415;32;20573;-84
2023/06/03 11:37:41;;;;;;;8.65;2.90;;;;;;;30.67;24.78;98277.59;4460014;32;20105;-84
2023/06/03 11:40:12;;;;;;;8.18;3.00;;;;;;;29.41;27.53;98268.78;4457902;32;20834;-83